createdAt,value
2023-04-10T00:00:15.121Z,993.21
2023-04-10T00:01:15.083Z,993.23
2023-04-10T00:02:15.159Z,993.24
2023-04-10T00:03:15.327Z,993.26
2023-04-10T00:04:15.427Z,993.26
2023-04-10T00:05:15.282Z,993.26
2023-04-10T00:06:15.050Z,993.26
2023-04-10T00:07:14.999Z,993.26
2023-04-10T00:08:14.985Z,993.26
2023-04-10T00:09:14.983Z,993.27
2023-04-10T00:10:14.980Z,993.27
2023-04-10T00:11:14.964Z,993.27
2023-04-10T00:12:14.981Z,993.27
2023-04-10T00:13:14.961Z,993.27
2023-04-10T00:14:14.958Z,993.26
2023-04-10T00:15:14.936Z,993.26
2023-04-10T00:16:15.020Z,993.25
2023-04-10T00:17:14.940Z,993.24
2023-04-10T00:18:14.929Z,993.23
2023-04-10T00:19:15.029Z,993.24
2023-04-10T00:20:14.893Z,993.24
2023-04-10T00:21:14.878Z,993.24
2023-04-10T00:22:14.849Z,993.23
2023-04-10T00:23:14.868Z,993.22
2023-04-10T00:24:14.830Z,993.20
2023-04-10T00:25:14.824Z,993.19
2023-04-10T00:26:14.812Z,993.18
2023-04-10T00:27:14.814Z,993.18
2023-04-10T00:28:14.801Z,993.16
2023-04-10T00:29:14.800Z,993.15
2023-04-10T00:30:14.763Z,993.13
2023-04-10T00:31:14.758Z,993.11
2023-04-10T00:32:14.803Z,993.10
2023-04-10T00:33:14.764Z,993.09
2023-04-10T00:34:14.737Z,993.08
2023-04-10T00:35:14.752Z,993.07
2023-04-10T00:36:14.745Z,993.06
2023-04-10T00:37:14.716Z,993.04
2023-04-10T00:38:14.708Z,993.04
2023-04-10T00:39:14.684Z,993.02
2023-04-10T00:40:14.720Z,993.00
2023-04-10T00:41:14.678Z,992.99
2023-04-10T00:42:14.651Z,992.99
2023-04-10T00:43:14.659Z,992.99
2023-04-10T00:44:14.652Z,992.98
2023-04-10T00:45:14.657Z,992.98
2023-04-10T00:46:14.863Z,992.98
2023-04-10T00:47:14.625Z,992.97
2023-04-10T00:48:14.587Z,992.97
2023-04-10T00:49:14.591Z,992.97
2023-04-10T00:50:14.591Z,992.96
2023-04-10T00:51:14.564Z,992.96
2023-04-10T00:52:14.563Z,992.95
2023-04-10T00:53:14.549Z,992.93
2023-04-10T00:54:14.541Z,992.92
2023-04-10T00:55:14.540Z,992.91
2023-04-10T00:56:14.524Z,992.88
2023-04-10T00:57:14.530Z,992.87
2023-04-10T00:58:14.592Z,992.86
2023-04-10T00:59:14.494Z,992.86
2023-04-10T01:00:14.479Z,992.85
2023-04-10T01:01:14.500Z,992.84
2023-04-10T01:02:14.571Z,992.83
2023-04-10T01:03:14.699Z,992.82
2023-04-10T01:04:14.541Z,992.81
2023-04-10T01:05:14.435Z,992.80
2023-04-10T01:06:14.400Z,992.79
2023-04-10T01:07:14.404Z,992.80
2023-04-10T01:08:14.400Z,992.81
2023-04-10T01:09:14.387Z,992.82
2023-04-10T01:10:14.383Z,992.85
2023-04-10T01:11:14.386Z,992.88
2023-04-10T01:12:14.351Z,992.91
2023-04-10T01:13:14.361Z,992.91
2023-04-10T01:14:14.360Z,992.91
2023-04-10T01:15:14.350Z,992.91
2023-04-10T01:16:14.352Z,992.93
2023-04-10T01:17:14.339Z,992.94
2023-04-10T01:18:14.313Z,992.97
2023-04-10T01:19:14.286Z,992.99
2023-04-10T01:20:14.340Z,993.01
2023-04-10T01:21:14.282Z,993.03
2023-04-10T01:22:14.263Z,993.04
2023-04-10T01:23:14.266Z,993.04
2023-04-10T01:24:14.262Z,993.04
2023-04-10T01:25:14.216Z,993.05
2023-04-10T01:26:14.260Z,993.04
2023-04-10T01:27:14.203Z,993.04
2023-04-10T01:28:14.192Z,993.06
2023-04-10T01:29:14.221Z,993.07
2023-04-10T01:30:14.184Z,993.09
2023-04-10T01:31:14.214Z,993.10
2023-04-10T01:32:14.161Z,993.13
2023-04-10T01:33:14.162Z,993.14
2023-04-10T01:34:14.175Z,993.14
2023-04-10T01:35:14.152Z,993.14
2023-04-10T01:36:14.117Z,993.14
2023-04-10T01:37:14.130Z,993.13
2023-04-10T01:38:14.086Z,993.14
2023-04-10T01:39:14.103Z,993.14
2023-04-10T01:40:14.087Z,993.15
2023-04-10T01:41:14.113Z,993.16
2023-04-10T01:42:14.072Z,993.18
2023-04-10T01:43:14.052Z,993.19
2023-04-10T01:44:14.041Z,993.20
2023-04-10T01:45:14.034Z,993.23
2023-04-10T01:46:14.026Z,993.24
2023-04-10T01:47:14.482Z,993.26
2023-04-10T01:48:13.986Z,993.28
2023-04-10T01:49:13.993Z,993.29
2023-04-10T01:50:13.986Z,993.30
2023-04-10T01:51:13.978Z,993.30
2023-04-10T01:52:13.971Z,993.29
2023-04-10T01:53:13.987Z,993.28
2023-04-10T01:54:13.943Z,993.28
2023-04-10T01:55:13.942Z,993.28
2023-04-10T01:56:13.973Z,993.27
2023-04-10T01:57:13.916Z,993.27
2023-04-10T01:58:14.068Z,993.27
2023-04-10T01:59:13.889Z,993.28
2023-04-10T02:00:13.921Z,993.28
2023-04-10T02:01:22.443Z,993.28
2023-04-10T02:02:13.964Z,993.29
2023-04-10T02:03:14.113Z,993.28
2023-04-10T02:04:13.975Z,993.28
2023-04-10T02:05:13.826Z,993.26
2023-04-10T02:06:13.829Z,993.25
2023-04-10T02:07:13.844Z,993.24
2023-04-10T02:08:13.808Z,993.23
2023-04-10T02:09:13.815Z,993.21
2023-04-10T02:10:13.798Z,993.20
2023-04-10T02:11:13.776Z,993.18
2023-04-10T02:12:13.775Z,993.17
2023-04-10T02:13:13.749Z,993.15
2023-04-10T02:14:13.737Z,993.12
2023-04-10T02:15:13.839Z,993.10
2023-04-10T02:16:13.803Z,993.07
2023-04-10T02:17:13.708Z,993.05
2023-04-10T02:18:13.700Z,993.02
2023-04-10T02:19:13.687Z,993.00
2023-04-10T02:20:13.719Z,992.98
2023-04-10T02:21:13.680Z,992.97
2023-04-10T02:22:13.664Z,992.98
2023-04-10T02:23:13.680Z,992.99
2023-04-10T02:24:13.643Z,993.01
2023-04-10T02:25:13.643Z,993.01
2023-04-10T02:26:13.649Z,993.02
2023-04-10T02:27:13.610Z,993.01
2023-04-10T02:28:13.619Z,993.01
2023-04-10T02:29:13.586Z,993.02
2023-04-10T02:30:13.573Z,993.02
2023-04-10T02:31:13.631Z,993.03
2023-04-10T02:32:13.550Z,993.04
2023-04-10T02:33:13.546Z,993.05
2023-04-10T02:34:13.550Z,993.05
2023-04-10T02:35:13.542Z,993.06
2023-04-10T02:36:13.536Z,993.06
2023-04-10T02:37:13.557Z,993.06
2023-04-10T02:38:15.569Z,993.06
2023-04-10T02:39:13.490Z,993.05
2023-04-10T02:40:13.488Z,993.04
2023-04-10T02:41:13.466Z,993.04
2023-04-10T02:42:13.472Z,993.04
2023-04-10T02:43:13.493Z,993.05
2023-04-10T02:44:13.476Z,993.06
2023-04-10T02:45:13.435Z,993.07
2023-04-10T02:46:13.457Z,993.08
2023-04-10T02:47:13.409Z,993.09
2023-04-10T02:48:13.434Z,993.10
2023-04-10T02:49:13.398Z,993.09
2023-04-10T02:50:13.400Z,993.09
2023-04-10T02:51:13.379Z,993.10
2023-04-10T02:52:13.373Z,993.10
2023-04-10T02:53:13.390Z,993.12
2023-04-10T02:54:13.338Z,993.13
2023-04-10T02:55:13.316Z,993.15
2023-04-10T02:56:13.310Z,993.15
2023-04-10T02:57:13.305Z,993.16
2023-04-10T02:58:15.052Z,993.15
2023-04-10T02:59:13.334Z,993.14
2023-04-10T03:00:13.295Z,993.13
2023-04-10T03:01:13.279Z,993.12
2023-04-10T03:02:13.355Z,993.11
2023-04-10T03:03:13.343Z,993.10
2023-04-10T03:04:13.479Z,993.11
2023-04-10T03:05:13.230Z,993.12
2023-04-10T03:06:13.242Z,993.12
2023-04-10T03:07:13.219Z,993.11
2023-04-10T03:08:13.202Z,993.09
2023-04-10T03:09:13.228Z,993.07
2023-04-10T03:10:13.194Z,993.05
2023-04-10T03:11:13.177Z,993.03
2023-04-10T03:12:13.164Z,993.01
2023-04-10T03:13:13.164Z,993.00
2023-04-10T03:14:13.152Z,992.99
2023-04-10T03:15:13.162Z,992.98
2023-04-10T03:16:13.207Z,993.00
2023-04-10T03:17:13.110Z,993.01
2023-04-10T03:18:13.158Z,993.03
2023-04-10T03:19:13.073Z,993.06
2023-04-10T03:20:13.092Z,993.08
2023-04-10T03:21:13.088Z,993.09
2023-04-10T03:22:13.048Z,993.11
2023-04-10T03:23:13.051Z,993.11
2023-04-10T03:24:13.037Z,993.11
2023-04-10T03:25:13.024Z,993.10
2023-04-10T03:26:13.063Z,993.07
2023-04-10T03:27:13.066Z,993.05
2023-04-10T03:28:13.006Z,993.03
2023-04-10T03:29:12.994Z,993.02
2023-04-10T03:30:13.002Z,993.01
2023-04-10T03:31:13.024Z,993.00
2023-04-10T03:32:12.976Z,992.98
2023-04-10T03:33:12.998Z,992.97
2023-04-10T03:34:12.944Z,992.97
2023-04-10T03:35:12.924Z,992.98
2023-04-10T03:36:12.936Z,992.97
2023-04-10T03:37:12.967Z,992.97
2023-04-10T03:38:12.946Z,992.97
2023-04-10T03:39:12.899Z,992.98
2023-04-10T03:40:12.895Z,992.99
2023-04-10T03:41:12.860Z,992.99
2023-04-10T03:42:12.882Z,992.98
2023-04-10T03:43:12.857Z,992.98
2023-04-10T03:44:12.874Z,992.96
2023-04-10T03:45:12.826Z,992.93
2023-04-10T03:46:12.826Z,992.90
2023-04-10T03:47:12.801Z,992.88
2023-04-10T03:48:12.805Z,992.86
2023-04-10T03:49:12.805Z,992.85
2023-04-10T03:50:13.197Z,992.85
2023-04-10T03:51:12.780Z,992.86
2023-04-10T03:52:12.780Z,992.87
2023-04-10T03:53:12.759Z,992.88
2023-04-10T03:54:12.741Z,992.89
2023-04-10T03:55:12.732Z,992.92
2023-04-10T03:56:12.766Z,992.95
2023-04-10T03:57:12.721Z,992.97
2023-04-10T03:58:12.708Z,993.00
2023-04-10T03:59:12.703Z,993.02
2023-04-10T04:00:12.682Z,993.04
2023-04-10T04:01:12.663Z,993.04
2023-04-10T04:02:12.746Z,993.03
2023-04-10T04:03:13.075Z,993.03
2023-04-10T04:04:12.786Z,993.03
2023-04-10T04:05:12.779Z,993.03
2023-04-10T04:06:12.636Z,993.03
2023-04-10T04:07:12.609Z,993.03
2023-04-10T04:08:12.637Z,993.03
2023-04-10T04:09:12.590Z,993.03
2023-04-10T04:10:12.579Z,993.04
2023-04-10T04:11:12.559Z,993.05
2023-04-10T04:12:12.566Z,993.05
2023-04-10T04:13:12.561Z,993.05
2023-04-10T04:14:12.574Z,993.04
2023-04-10T04:15:12.552Z,993.03
2023-04-10T04:16:12.623Z,993.02
2023-04-10T04:17:12.521Z,993.02
2023-04-10T04:18:12.505Z,993.02
2023-04-10T04:19:12.501Z,993.01
2023-04-10T04:20:12.521Z,993.00
2023-04-10T04:21:12.470Z,993.00
2023-04-10T04:22:12.464Z,993.00
2023-04-10T04:23:12.448Z,993.00
2023-04-10T04:24:12.430Z,993.00
2023-04-10T04:25:12.430Z,993.00
2023-04-10T04:26:12.461Z,992.99
2023-04-10T04:27:12.396Z,992.99
2023-04-10T04:28:12.392Z,992.99
2023-04-10T04:29:12.406Z,993.00
2023-04-10T04:30:12.403Z,992.99
2023-04-10T04:31:12.413Z,992.99
2023-04-10T04:32:12.427Z,992.99
2023-04-10T04:33:12.355Z,993.00
2023-04-10T04:34:12.357Z,993.01
2023-04-10T04:35:12.333Z,993.01
2023-04-10T04:36:12.348Z,992.99
2023-04-10T04:37:12.336Z,992.98
2023-04-10T04:38:12.319Z,992.98
2023-04-10T04:39:12.278Z,992.97
2023-04-10T04:40:12.308Z,992.96
2023-04-10T04:41:12.294Z,992.94
2023-04-10T04:42:12.285Z,992.94
2023-04-10T04:43:12.295Z,992.94
2023-04-10T04:44:12.271Z,992.95
2023-04-10T04:45:12.229Z,992.95
2023-04-10T04:46:12.270Z,992.95
2023-04-10T04:47:12.213Z,992.95
2023-04-10T04:48:12.240Z,992.96
2023-04-10T04:49:12.195Z,992.97
2023-04-10T04:50:12.189Z,992.98
2023-04-10T04:51:12.180Z,992.99
2023-04-10T04:52:12.169Z,993.00
2023-04-10T04:53:12.162Z,993.00
2023-04-10T04:54:12.215Z,992.99
2023-04-10T04:55:12.144Z,993.00
2023-04-10T04:56:12.161Z,993.00
2023-04-10T04:57:12.135Z,992.99
2023-04-10T04:58:12.126Z,992.97
2023-04-10T04:59:12.107Z,992.96
2023-04-10T05:00:12.124Z,992.95
2023-04-10T05:01:12.137Z,992.95
2023-04-10T05:02:12.101Z,992.95
2023-04-10T05:03:12.136Z,992.96
2023-04-10T05:04:12.069Z,992.97
2023-04-10T05:05:12.030Z,992.98
2023-04-10T05:06:12.082Z,993.00
2023-04-10T05:07:12.005Z,993.01
2023-04-10T05:08:12.004Z,993.03
2023-04-10T05:09:11.996Z,993.03
2023-04-10T05:10:12.011Z,993.04
2023-04-10T05:11:11.975Z,993.04
2023-04-10T05:12:11.973Z,993.03
2023-04-10T05:13:11.949Z,993.01
2023-04-10T05:14:11.952Z,992.99
2023-04-10T05:15:11.918Z,992.98
2023-04-10T05:16:11.966Z,992.97
2023-04-10T05:17:11.897Z,992.97
2023-04-10T05:18:11.953Z,992.97
2023-04-10T05:19:11.887Z,992.97
2023-04-10T05:20:11.880Z,992.96
2023-04-10T05:21:11.864Z,992.96
2023-04-10T05:22:11.886Z,992.95
2023-04-10T05:23:11.857Z,992.96
2023-04-10T05:24:11.843Z,992.97
2023-04-10T05:25:11.861Z,992.97
2023-04-10T05:26:11.840Z,992.97
2023-04-10T05:27:11.883Z,992.96
2023-04-10T05:28:11.818Z,992.95
2023-04-10T05:29:11.796Z,992.96
2023-04-10T05:30:11.785Z,992.96
2023-04-10T05:31:11.880Z,992.96
2023-04-10T05:32:11.814Z,992.97
2023-04-10T05:33:11.766Z,992.99
2023-04-10T05:34:11.779Z,993.00
2023-04-10T05:35:11.716Z,993.01
2023-04-10T05:36:11.751Z,993.02
2023-04-10T05:37:11.717Z,993.02
2023-04-10T05:38:11.732Z,993.03
2023-04-10T05:39:11.689Z,993.04
2023-04-10T05:40:11.697Z,993.06
2023-04-10T05:41:11.679Z,993.07
2023-04-10T05:42:11.701Z,993.08
2023-04-10T05:43:11.688Z,993.08
2023-04-10T05:44:11.652Z,993.09
2023-04-10T05:45:11.637Z,993.10
2023-04-10T05:46:11.729Z,993.11
2023-04-10T05:47:11.618Z,993.10
2023-04-10T05:48:11.617Z,993.11
2023-04-10T05:49:11.632Z,993.10
2023-04-10T05:50:11.621Z,993.12
2023-04-10T05:51:11.580Z,993.13
2023-04-10T05:52:11.585Z,993.13
2023-04-10T05:53:11.558Z,993.13
2023-04-10T05:54:11.555Z,993.14
2023-04-10T05:55:11.593Z,993.15
2023-04-10T05:56:11.543Z,993.16
2023-04-10T05:57:11.532Z,993.17
2023-04-10T05:58:11.533Z,993.17
2023-04-10T05:59:11.615Z,993.17
2023-04-10T06:00:11.531Z,993.17
2023-04-10T06:01:11.515Z,993.16
2023-04-10T06:02:11.503Z,993.16
2023-04-10T06:03:11.528Z,993.16
2023-04-10T06:04:11.572Z,993.15
2023-04-10T06:05:11.476Z,993.14
2023-04-10T06:06:11.459Z,993.14
2023-04-10T06:07:11.481Z,993.12
2023-04-10T06:08:11.404Z,993.10
2023-04-10T06:09:11.416Z,993.10
2023-04-10T06:10:11.394Z,993.10
2023-04-10T06:11:11.378Z,993.10
2023-04-10T06:12:11.394Z,993.10
2023-04-10T06:13:11.493Z,993.10
2023-04-10T06:14:11.355Z,993.11
2023-04-10T06:15:11.562Z,993.13
2023-04-10T06:16:11.373Z,993.13
2023-04-10T06:17:11.472Z,993.13
2023-04-10T06:18:11.302Z,993.13
2023-04-10T06:19:11.312Z,993.12
2023-04-10T06:20:11.311Z,993.12
2023-04-10T06:21:11.285Z,993.12
2023-04-10T06:22:11.261Z,993.11
2023-04-10T06:23:11.299Z,993.11
2023-04-10T06:24:12.789Z,993.11
2023-04-10T06:25:11.263Z,993.11
2023-04-10T06:26:11.231Z,993.12
2023-04-10T06:27:11.208Z,993.13
2023-04-10T06:28:11.265Z,993.12
2023-04-10T06:29:11.215Z,993.13
2023-04-10T06:30:11.213Z,993.14
2023-04-10T06:31:11.179Z,993.14
2023-04-10T06:32:11.155Z,993.14
2023-04-10T06:33:11.174Z,993.15
2023-04-10T06:34:11.190Z,993.15
2023-04-10T06:35:11.172Z,993.15
2023-04-10T06:36:11.216Z,993.15
2023-04-10T06:37:11.127Z,993.13
2023-04-10T06:38:11.101Z,993.12
2023-04-10T06:39:11.091Z,993.11
2023-04-10T06:40:11.118Z,993.12
2023-04-10T06:41:11.097Z,993.11
2023-04-10T06:42:11.060Z,993.12
2023-04-10T06:43:11.061Z,993.13
2023-04-10T06:44:11.046Z,993.13
2023-04-10T06:45:11.116Z,993.14
2023-04-10T06:46:11.031Z,993.15
2023-04-10T06:47:11.092Z,993.15
2023-04-10T06:48:11.021Z,993.14
2023-04-10T06:49:11.004Z,993.13
2023-04-10T06:50:11.019Z,993.12
2023-04-10T06:51:11.014Z,993.11
2023-04-10T06:52:10.983Z,993.11
2023-04-10T06:53:10.968Z,993.10
2023-04-10T06:54:10.943Z,993.09
2023-04-10T06:55:10.968Z,993.09
2023-04-10T06:56:11.425Z,993.09
2023-04-10T06:57:11.110Z,993.10
2023-04-10T06:58:10.922Z,993.10
2023-04-10T06:59:10.905Z,993.09
2023-04-10T07:00:10.942Z,993.10
2023-04-10T07:01:10.926Z,993.10
2023-04-10T07:02:10.958Z,993.10
2023-04-10T07:03:10.941Z,993.10
2023-04-10T07:04:10.918Z,993.10
2023-04-10T07:05:10.858Z,993.10
2023-04-10T07:06:10.873Z,993.11
2023-04-10T07:07:10.829Z,993.11
2023-04-10T07:08:10.820Z,993.10
2023-04-10T07:09:10.799Z,993.08
2023-04-10T07:10:10.830Z,993.09
2023-04-10T07:11:10.793Z,993.08
2023-04-10T07:12:10.790Z,993.09
2023-04-10T07:13:10.779Z,993.08
2023-04-10T07:14:10.763Z,993.07
2023-04-10T07:15:10.744Z,993.06
2023-04-10T07:16:10.772Z,993.05
2023-04-10T07:17:10.735Z,993.04
2023-04-10T07:18:10.760Z,993.05
2023-04-10T07:19:10.715Z,993.04
2023-04-10T07:20:10.690Z,993.04
2023-04-10T07:21:10.692Z,993.03
2023-04-10T07:22:10.672Z,993.02
2023-04-10T07:23:10.683Z,993.00
2023-04-10T07:24:10.703Z,993.00
2023-04-10T07:25:10.645Z,992.98
2023-04-10T07:26:10.616Z,992.98
2023-04-10T07:27:10.626Z,992.96
2023-04-10T07:28:10.609Z,992.95
2023-04-10T07:29:10.601Z,992.95
2023-04-10T07:30:12.979Z,992.95
2023-04-10T07:31:10.675Z,992.95
2023-04-10T07:32:10.761Z,992.94
2023-04-10T07:33:10.715Z,992.94
2023-04-10T07:34:10.566Z,992.94
2023-04-10T07:35:10.587Z,992.94
2023-04-10T07:36:10.643Z,992.93
2023-04-10T07:37:10.528Z,992.93
2023-04-10T07:38:10.509Z,992.92
2023-04-10T07:39:10.523Z,992.91
2023-04-10T07:40:10.523Z,992.90
2023-04-10T07:41:10.529Z,992.89
2023-04-10T07:42:10.459Z,992.89
2023-04-10T07:43:10.475Z,992.89
2023-04-10T07:44:10.437Z,992.89
2023-04-10T07:45:10.429Z,992.89
2023-04-10T07:46:10.463Z,992.89
2023-04-10T07:47:10.436Z,992.89
2023-04-10T07:48:10.400Z,992.88
2023-04-10T07:49:10.412Z,992.87
2023-04-10T07:50:10.410Z,992.85
2023-04-10T07:51:10.390Z,992.85
2023-04-10T07:52:10.418Z,992.85
2023-04-10T07:53:10.352Z,992.84
2023-04-10T07:54:10.337Z,992.81
2023-04-10T07:55:10.349Z,992.79
2023-04-10T07:56:10.316Z,992.75
2023-04-10T07:57:10.337Z,992.73
2023-04-10T07:58:10.341Z,992.71
2023-04-10T07:59:10.304Z,992.70
2023-04-10T08:00:10.297Z,992.69
2023-04-10T08:01:10.293Z,992.70
2023-04-10T08:02:10.370Z,992.69
2023-04-10T08:03:10.694Z,992.69
2023-04-10T08:04:10.451Z,992.70
2023-04-10T08:05:10.302Z,992.70
2023-04-10T08:06:10.222Z,992.68
2023-04-10T08:07:10.245Z,992.68
2023-04-10T08:08:10.196Z,992.67
2023-04-10T08:09:10.218Z,992.65
2023-04-10T08:10:10.186Z,992.63
2023-04-10T08:11:10.174Z,992.61
2023-04-10T08:12:10.153Z,992.59
2023-04-10T08:13:10.165Z,992.59
2023-04-10T08:14:10.184Z,992.58
2023-04-10T08:15:10.160Z,992.59
2023-04-10T08:16:10.179Z,992.60
2023-04-10T08:17:10.187Z,992.59
2023-04-10T08:18:10.112Z,992.59
2023-04-10T08:19:10.109Z,992.59
2023-04-10T08:20:10.122Z,992.59
2023-04-10T08:21:10.073Z,992.57
2023-04-10T08:22:10.051Z,992.57
2023-04-10T08:23:19.932Z,992.57
2023-04-10T08:24:10.044Z,992.56
2023-04-10T08:25:10.086Z,992.55
2023-04-10T08:26:10.038Z,992.55
2023-04-10T08:27:10.038Z,992.55
2023-04-10T08:28:10.006Z,992.55
2023-04-10T08:29:09.994Z,992.54
2023-04-10T08:30:09.977Z,992.52
2023-04-10T08:31:10.028Z,992.51
2023-04-10T08:32:10.011Z,992.51
2023-04-10T08:33:09.949Z,992.48
2023-04-10T08:34:09.949Z,992.45
2023-04-10T08:35:09.945Z,992.41
2023-04-10T08:36:09.990Z,992.38
2023-04-10T08:37:11.865Z,992.36
2023-04-10T08:38:13.996Z,992.32
2023-04-10T08:39:09.906Z,992.33
2023-04-10T08:40:09.896Z,992.31
2023-04-10T08:41:09.895Z,992.31
2023-04-10T08:42:09.862Z,992.32
2023-04-10T08:43:09.876Z,992.31
2023-04-10T08:44:09.853Z,992.33
2023-04-10T08:45:09.857Z,992.25
2023-04-10T08:46:09.936Z,992.28
2023-04-10T08:47:09.812Z,992.25
2023-04-10T08:48:09.818Z,992.24
2023-04-10T08:49:09.802Z,992.23
2023-04-10T08:50:09.777Z,992.24
2023-04-10T08:51:15.504Z,992.28
2023-04-10T08:52:09.808Z,992.21
2023-04-10T08:53:09.763Z,992.20
2023-04-10T08:54:09.799Z,992.20
2023-04-10T08:55:09.742Z,992.18
2023-04-10T08:56:09.731Z,992.16
2023-04-10T08:57:11.048Z,992.14
2023-04-10T08:58:09.700Z,992.10
2023-04-10T08:59:09.703Z,992.11
2023-04-10T09:00:22.531Z,992.12
2023-04-10T09:01:09.687Z,992.11
2023-04-10T09:02:09.730Z,992.08
2023-04-10T09:03:09.783Z,992.05
2023-04-10T09:04:09.784Z,992.04
2023-04-10T09:05:09.658Z,992.01
2023-04-10T09:06:09.647Z,992.00
2023-04-10T09:07:09.633Z,991.96
2023-04-10T09:08:09.626Z,991.96
2023-04-10T09:09:09.593Z,991.94
2023-04-10T09:10:09.595Z,991.93
2023-04-10T09:11:09.601Z,991.92
2023-04-10T09:12:09.574Z,991.90
2023-04-10T09:13:09.539Z,991.88
2023-04-10T09:14:09.553Z,991.87
2023-04-10T09:15:09.543Z,991.88
2023-04-10T09:16:09.614Z,991.88
2023-04-10T09:17:09.522Z,991.83
2023-04-10T09:18:09.634Z,991.83
2023-04-10T09:19:09.495Z,991.83
2023-04-10T09:20:09.493Z,991.82
2023-04-10T09:21:09.484Z,991.79
2023-04-10T09:22:09.506Z,991.77
2023-04-10T09:23:09.456Z,991.74
2023-04-10T09:24:09.456Z,991.74
2023-04-10T09:25:09.432Z,991.74
2023-04-10T09:26:09.413Z,991.73
2023-04-10T09:27:09.403Z,991.73
2023-04-10T09:28:09.428Z,991.73
2023-04-10T09:29:09.399Z,991.70
2023-04-10T09:30:09.381Z,991.69
2023-04-10T09:31:09.463Z,991.66
2023-04-10T09:32:09.368Z,991.67
2023-04-10T09:33:09.411Z,991.64
2023-04-10T09:34:09.339Z,991.63
2023-04-10T09:35:09.435Z,991.61
2023-04-10T09:36:09.313Z,991.63
2023-04-10T09:37:09.300Z,991.63
2023-04-10T09:38:09.303Z,991.59
2023-04-10T09:39:09.300Z,991.59
2023-04-10T09:40:09.304Z,991.57
2023-04-10T09:41:09.295Z,991.57
2023-04-10T09:42:09.255Z,991.56
2023-04-10T09:43:09.301Z,991.54
2023-04-10T09:44:09.276Z,991.55
2023-04-10T09:45:09.227Z,991.51
2023-04-10T09:46:09.243Z,991.48
2023-04-10T09:47:09.221Z,991.44
2023-04-10T09:48:09.219Z,991.43
2023-04-10T09:49:09.220Z,991.41
2023-04-10T09:50:09.166Z,991.42
2023-04-10T09:51:09.185Z,991.36
2023-04-10T09:52:09.146Z,991.32
2023-04-10T09:53:09.184Z,991.31
2023-04-10T09:54:09.149Z,991.33
2023-04-10T09:55:09.119Z,991.30
2023-04-10T09:56:09.115Z,991.31
2023-04-10T09:57:09.120Z,991.29
2023-04-10T09:58:09.106Z,991.26
2023-04-10T09:59:09.114Z,991.22
2023-04-10T10:00:09.092Z,991.26
2023-04-10T10:01:09.061Z,991.23
2023-04-10T10:02:09.124Z,991.23
2023-04-10T10:03:09.232Z,991.21
2023-04-10T10:04:09.056Z,991.18
2023-04-10T10:05:09.207Z,991.19
2023-04-10T10:06:09.021Z,991.14
2023-04-10T10:07:09.006Z,991.12
2023-04-10T10:08:08.987Z,991.09
2023-04-10T10:09:08.991Z,991.08
2023-04-10T10:10:09.257Z,991.09
2023-04-10T10:11:08.974Z,991.07
2023-04-10T10:12:08.947Z,991.06
2023-04-10T10:13:08.928Z,991.05
2023-04-10T10:14:08.924Z,991.02
2023-04-10T10:15:09.316Z,991.00
2023-04-10T10:16:08.991Z,990.95
2023-04-10T10:17:08.905Z,990.90
2023-04-10T10:18:08.892Z,990.92
2023-04-10T10:19:08.876Z,990.93
2023-04-10T10:20:08.875Z,990.92
2023-04-10T10:21:08.902Z,990.91
2023-04-10T10:22:08.858Z,990.89
2023-04-10T10:23:08.850Z,990.87
2023-04-10T10:24:08.836Z,990.84
2023-04-10T10:25:08.821Z,990.86
2023-04-10T10:26:08.852Z,990.81
2023-04-10T10:27:08.804Z,990.75
2023-04-10T10:28:08.801Z,990.71
2023-04-10T10:29:08.785Z,990.70
2023-04-10T10:30:25.364Z,990.69
2023-04-10T10:31:08.795Z,990.67
2023-04-10T10:32:08.771Z,990.57
2023-04-10T10:33:08.761Z,990.60
2023-04-10T10:34:08.745Z,990.55
2023-04-10T10:35:08.728Z,990.54
2023-04-10T10:36:08.729Z,990.52
2023-04-10T10:37:08.732Z,990.48
2023-04-10T10:38:08.689Z,990.49
2023-04-10T10:39:08.678Z,990.46
2023-04-10T10:40:08.669Z,990.42
2023-04-10T10:41:08.676Z,990.39
2023-04-10T10:42:08.650Z,990.37
2023-04-10T10:43:08.660Z,990.36
2023-04-10T10:44:08.632Z,990.33
2023-04-10T10:45:08.616Z,990.33
2023-04-10T10:46:08.722Z,990.36
2023-04-10T10:47:08.606Z,990.35
2023-04-10T10:48:08.623Z,990.34
2023-04-10T10:49:08.638Z,990.31
2023-04-10T10:50:08.583Z,990.31
2023-04-10T10:51:08.600Z,990.32
2023-04-10T10:52:08.559Z,990.29
2023-04-10T10:53:08.526Z,990.30
2023-04-10T10:54:08.530Z,990.32
2023-04-10T10:55:08.513Z,990.24
2023-04-10T10:56:08.510Z,990.26
2023-04-10T10:57:08.513Z,990.27
2023-04-10T10:58:08.486Z,990.28
2023-04-10T10:59:08.460Z,990.26
2023-04-10T11:00:08.468Z,990.23
2023-04-10T11:01:10.310Z,990.22
2023-04-10T11:02:08.529Z,990.23
2023-04-10T11:03:08.708Z,990.21
2023-04-10T11:04:08.512Z,990.18
2023-04-10T11:05:08.410Z,990.17
2023-04-10T11:06:08.405Z,990.14
2023-04-10T11:07:08.382Z,990.14
2023-04-10T11:08:08.650Z,990.13
2023-04-10T11:09:08.387Z,990.10
2023-04-10T11:10:08.389Z,990.06
2023-04-10T11:11:08.419Z,990.09
2023-04-10T11:12:08.354Z,990.07
2023-04-10T11:13:08.342Z,990.09
2023-04-10T11:14:08.371Z,990.08
2023-04-10T11:15:08.321Z,990.01
2023-04-10T11:16:08.382Z,989.99
2023-04-10T11:17:08.530Z,989.98
2023-04-10T11:18:08.285Z,989.94
2023-04-10T11:19:14.024Z,989.91
2023-04-10T11:20:08.284Z,989.94
2023-04-10T11:21:08.248Z,989.95
2023-04-10T11:22:08.730Z,989.93
2023-04-10T11:23:08.245Z,989.87
2023-04-10T11:24:08.217Z,989.83
2023-04-10T11:25:08.229Z,989.91
2023-04-10T11:26:08.206Z,989.91
2023-04-10T11:27:08.193Z,989.94
2023-04-10T11:28:08.182Z,989.85
2023-04-10T11:29:08.162Z,989.81
2023-04-10T11:30:08.195Z,989.81
2023-04-10T11:31:08.141Z,989.79
2023-04-10T11:32:08.278Z,989.73
2023-04-10T11:33:08.203Z,989.75
2023-04-10T11:34:08.151Z,989.74
2023-04-10T11:35:08.101Z,989.71
2023-04-10T11:36:08.114Z,989.76
2023-04-10T11:37:08.096Z,989.73
2023-04-10T11:38:08.086Z,989.72
2023-04-10T11:39:08.067Z,989.73
2023-04-10T11:40:08.063Z,989.69
2023-04-10T11:41:08.069Z,989.72
2023-04-10T11:42:08.030Z,989.64
2023-04-10T11:43:08.018Z,989.63
2023-04-10T11:44:08.001Z,989.64
2023-04-10T11:45:07.990Z,989.58
2023-04-10T11:46:08.186Z,989.52
2023-04-10T11:47:07.979Z,989.52
2023-04-10T11:48:08.045Z,989.54
2023-04-10T11:49:07.973Z,989.57
2023-04-10T11:50:07.961Z,989.52
2023-04-10T11:51:07.955Z,989.49
2023-04-10T11:52:07.951Z,989.48
2023-04-10T11:53:07.956Z,989.48
2023-04-10T11:54:07.923Z,989.47
2023-04-10T11:55:07.894Z,989.49
2023-04-10T11:56:07.914Z,989.44
2023-04-10T11:57:07.860Z,989.46
2023-04-10T11:58:07.895Z,989.41
2023-04-10T11:59:08.046Z,989.43
2023-04-10T12:00:07.851Z,989.42
2023-04-10T12:01:07.835Z,989.39
2023-04-10T12:02:08.030Z,989.43
2023-04-10T12:03:08.001Z,989.36
2023-04-10T12:04:08.069Z,989.41
2023-04-10T12:05:07.804Z,989.40
2023-04-10T12:06:07.819Z,989.42
2023-04-10T12:07:07.785Z,989.37
2023-04-10T12:08:07.788Z,989.36
2023-04-10T12:09:08.211Z,989.34
2023-04-10T12:10:07.755Z,989.30
2023-04-10T12:11:07.752Z,989.28
2023-04-10T12:12:07.845Z,989.17
2023-04-10T12:13:07.777Z,989.25
2023-04-10T12:14:07.705Z,989.22
2023-04-10T12:15:07.707Z,989.28
2023-04-10T12:16:07.860Z,989.24
2023-04-10T12:17:07.700Z,989.25
2023-04-10T12:18:07.731Z,989.27
2023-04-10T12:19:07.651Z,989.22
2023-04-10T12:20:07.689Z,989.23
2023-04-10T12:21:08.588Z,989.16
2023-04-10T12:22:07.779Z,989.13
2023-04-10T12:23:07.594Z,989.09
2023-04-10T12:24:07.602Z,989.11
2023-04-10T12:25:07.582Z,989.22
2023-04-10T12:26:07.607Z,989.07
2023-04-10T12:27:07.584Z,989.07
2023-04-10T12:28:07.547Z,988.99